DTTA/TUN METAR and TAF weather

Enter ICAO airport designator
Station Type Date Time Source
DTTA METAR 2021/09/24 00:00 UTC NOAA

DTTA 240000Z 12004KT 070V170 9999 FEW026 26/22 Q1017


Station Type Date Time Source
DTTA Decoded METAR 2021/09/24 00:00 UTC NOAA

Tunis-Carthage, Tunisia (DTTA) 36-50N 010-14E 4M
Sep 23, 2021 - 08:00 PM EDT / 2021.09.24 0000 UTC
Wind: from the ESE (120 degrees) at 5 MPH (4 KT) (direction variable):0
Visibility: greater than 7 mile(s):0
Sky conditions: mostly clear
Temperature: 78 F (26 C)
Dew Point: 71 F (22 C)
Relative Humidity: 78%
Pressure (altimeter): 30.03 in. Hg (1017 hPa)
ob: DTTA 240000Z 12004KT 070V170 9999 FEW026 26/22 Q1017
cycle: 0

Station Type Date Time Source
DTTA TAF 2021/09/23 18:27 UTC NOAA

TAF DTTA 231700Z 2318/2418 10010KT 9999 FEW026
BECMG 2322/2324 16007KT PROB40
TEMPO 2414/2418 15017KT

Example: see airport list